createdAt,value
2019-02-17T00:01:11.021Z,100.00
2019-02-17T00:03:39.320Z,100.00
2019-02-17T00:06:07.619Z,100.00
2019-02-17T00:08:35.933Z,100.00
2019-02-17T00:11:04.238Z,100.00
2019-02-17T00:13:32.646Z,100.00
2019-02-17T00:16:01.459Z,100.00
2019-02-17T00:18:29.838Z,100.00
2019-02-17T00:20:58.160Z,100.00
2019-02-17T00:23:26.460Z,100.00
2019-02-17T00:25:54.801Z,100.00
2019-02-17T00:28:23.112Z,100.00
2019-02-17T00:30:51.706Z,100.00
2019-02-17T00:33:20.403Z,100.00
2019-02-17T00:35:48.710Z,100.00
2019-02-17T00:38:17.049Z,100.00
2019-02-17T00:40:45.348Z,100.00
2019-02-17T00:43:13.660Z,100.00
2019-02-17T00:45:41.990Z,100.00
2019-02-17T00:48:10.285Z,100.00
2019-02-17T00:50:38.620Z,100.00
2019-02-17T00:53:07.156Z,100.00
2019-02-17T00:55:35.457Z,100.00
2019-02-17T00:58:03.780Z,100.00
2019-02-17T01:00:32.084Z,100.00
2019-02-17T01:03:00.423Z,100.00
2019-02-17T01:05:28.726Z,100.00
2019-02-17T01:07:57.028Z,100.00
2019-02-17T01:10:25.358Z,100.00
2019-02-17T01:12:53.659Z,100.00
2019-02-17T01:15:21.979Z,100.00
2019-02-17T01:17:50.557Z,100.00
2019-02-17T01:20:18.860Z,100.00
2019-02-17T01:22:47.323Z,100.00
2019-02-17T01:25:15.696Z,100.00
2019-02-17T01:27:44.018Z,100.00
2019-02-17T01:30:15.840Z,100.00
2019-02-17T01:32:44.138Z,100.00
2019-02-17T01:35:12.519Z,100.00
2019-02-17T01:37:40.896Z,100.00
2019-02-17T01:40:10.169Z,100.00
2019-02-17T01:42:38.479Z,100.00
2019-02-17T01:45:09.023Z,100.00
2019-02-17T01:47:37.690Z,100.00
2019-02-17T01:50:10.179Z,100.00
2019-02-17T01:52:38.850Z,100.00
2019-02-17T01:55:08.391Z,100.00
2019-02-17T01:57:37.053Z,100.00
2019-02-17T02:00:15.572Z,100.00
2019-02-17T02:02:43.961Z,100.00
2019-02-17T02:05:12.283Z,100.00
2019-02-17T02:07:40.591Z,100.00
2019-02-17T02:10:10.049Z,100.00
2019-02-17T02:12:38.354Z,100.00
2019-02-17T02:15:11.693Z,100.00
2019-02-17T02:17:40.015Z,100.00
2019-02-17T02:20:13.181Z,100.00
2019-02-17T02:22:41.570Z,100.00
2019-02-17T02:25:10.149Z,100.00
2019-02-17T02:27:38.469Z,100.00
2019-02-17T02:30:12.216Z,100.00
2019-02-17T02:32:40.808Z,100.00
2019-02-17T02:35:09.201Z,100.00
2019-02-17T02:37:37.582Z,100.00
2019-02-17T02:40:07.246Z,100.00
2019-02-17T02:42:35.546Z,100.00
2019-02-17T02:45:05.803Z,100.00
2019-02-17T02:47:34.103Z,100.00
2019-02-17T02:50:02.415Z,100.00
2019-02-17T02:52:30.745Z,100.00
2019-02-17T02:54:59.117Z,100.00
2019-02-17T02:57:27.801Z,100.00
2019-02-17T02:59:56.171Z,100.00
2019-02-17T03:02:24.475Z,100.00
2019-02-17T03:04:52.803Z,100.00
2019-02-17T03:07:21.573Z,100.00
2019-02-17T03:09:50.526Z,100.00
2019-02-17T03:12:18.839Z,100.00
2019-02-17T03:14:47.151Z,100.00
2019-02-17T03:17:15.472Z,100.00
2019-02-17T03:19:43.778Z,100.00
2019-02-17T03:22:12.438Z,100.00
2019-02-17T03:24:40.736Z,100.00
2019-02-17T03:27:09.408Z,100.00
2019-02-17T03:29:37.732Z,100.00
2019-02-17T03:32:06.056Z,100.00
2019-02-17T03:34:34.377Z,100.00
2019-02-17T03:37:02.687Z,100.00
2019-02-17T03:39:30.993Z,100.00
2019-02-17T03:42:00.206Z,100.00
2019-02-17T03:44:28.518Z,100.00
2019-02-17T03:46:57.176Z,100.00
2019-02-17T03:49:25.549Z,100.00
2019-02-17T03:51:54.144Z,100.00
2019-02-17T03:54:22.470Z,100.00
2019-02-17T03:56:50.775Z,100.00
2019-02-17T03:59:19.134Z,100.00
2019-02-17T04:01:47.448Z,100.00
2019-02-17T04:04:15.753Z,100.00
2019-02-17T04:06:44.079Z,100.00
2019-02-17T04:09:12.391Z,100.00
2019-02-17T04:11:40.718Z,100.00
2019-02-17T04:14:09.030Z,100.00
2019-02-17T04:16:37.337Z,100.00
2019-02-17T04:19:05.949Z,100.00
2019-02-17T04:21:34.259Z,100.00
2019-02-17T04:24:02.586Z,100.00
2019-02-17T04:26:30.897Z,100.00
2019-02-17T04:28:59.203Z,100.00
2019-02-17T04:31:27.531Z,100.00
2019-02-17T04:33:55.841Z,100.00
2019-02-17T04:36:24.175Z,100.00
2019-02-17T04:38:52.480Z,100.00
2019-02-17T04:41:20.865Z,100.00
2019-02-17T04:43:49.257Z,100.00
2019-02-17T04:46:17.574Z,100.00
2019-02-17T04:48:45.917Z,100.00
2019-02-17T04:51:14.224Z,100.00
2019-02-17T04:53:42.529Z,100.00
2019-02-17T04:56:11.255Z,100.00
2019-02-17T04:58:39.564Z,100.00
2019-02-17T05:01:08.322Z,100.00
2019-02-17T05:03:36.698Z,100.00
2019-02-17T05:06:05.006Z,100.00
2019-02-17T05:08:33.545Z,100.00
2019-02-17T05:11:01.859Z,100.00
2019-02-17T05:13:30.187Z,100.00
2019-02-17T05:15:58.510Z,100.00
2019-02-17T05:18:26.797Z,100.00
2019-02-17T05:20:55.132Z,100.00
2019-02-17T05:23:23.443Z,100.00
2019-02-17T05:25:51.838Z,100.00
2019-02-17T05:28:20.136Z,100.00
2019-02-17T05:30:52.906Z,100.00
2019-02-17T05:33:18.820Z,100.00
2019-02-17T05:35:47.513Z,100.00
2019-02-17T05:38:15.840Z,100.00
2019-02-17T05:40:44.171Z,100.00
2019-02-17T05:43:12.454Z,100.00
2019-02-17T05:45:40.974Z,100.00
2019-02-17T05:48:09.551Z,100.00
2019-02-17T05:50:37.976Z,100.00
2019-02-17T05:53:06.250Z,100.00
2019-02-17T05:55:34.560Z,100.00
2019-02-17T05:58:02.961Z,100.00
2019-02-17T06:00:32.236Z,100.00
2019-02-17T06:03:00.564Z,100.00
2019-02-17T06:05:28.867Z,100.00
2019-02-17T06:07:57.222Z,100.00
2019-02-17T06:10:25.667Z,100.00
2019-02-17T06:12:53.977Z,100.00
2019-02-17T06:15:22.582Z,100.00
2019-02-17T06:17:50.894Z,100.00
2019-02-17T06:20:19.224Z,100.00
2019-02-17T06:22:47.796Z,100.00
2019-02-17T06:25:16.202Z,100.00
2019-02-17T06:27:44.552Z,100.00
2019-02-17T06:30:12.934Z,100.00
2019-02-17T06:32:41.327Z,100.00
2019-02-17T06:35:09.710Z,100.00
2019-02-17T06:37:38.116Z,100.00
2019-02-17T06:40:07.865Z,100.00
2019-02-17T06:42:36.178Z,100.00
2019-02-17T06:45:06.254Z,100.00
2019-02-17T06:47:35.795Z,100.00
2019-02-17T06:50:05.034Z,100.00
2019-02-17T06:52:33.696Z,100.00
2019-02-17T06:55:06.339Z,100.00
2019-02-17T06:57:36.390Z,100.00
2019-02-17T07:00:08.322Z,100.00
2019-02-17T07:02:36.665Z,100.00
2019-02-17T07:05:24.215Z,100.00
2019-02-17T07:07:52.545Z,100.00
2019-02-17T07:10:20.867Z,100.00
2019-02-17T07:12:49.683Z,100.00
2019-02-17T07:15:17.989Z,100.00
2019-02-17T07:17:46.365Z,100.00
2019-02-17T07:20:14.696Z,100.00
2019-02-17T07:22:43.005Z,100.00
2019-02-17T07:25:11.344Z,100.00
2019-02-17T07:27:39.655Z,100.00
2019-02-17T07:30:08.232Z,100.00
2019-02-17T07:32:36.560Z,100.00
2019-02-17T07:35:06.110Z,100.00
2019-02-17T07:37:34.450Z,100.00
2019-02-17T07:40:03.201Z,100.00
2019-02-17T07:42:31.505Z,100.00
2019-02-17T07:44:59.882Z,100.00
2019-02-17T07:47:28.190Z,100.00
2019-02-17T07:49:56.509Z,100.00
2019-02-17T07:52:24.968Z,100.00
2019-02-17T07:54:53.268Z,100.00
2019-02-17T07:57:21.597Z,100.00
2019-02-17T07:59:49.904Z,100.00
2019-02-17T08:02:18.294Z,100.00
2019-02-17T08:04:46.605Z,100.00
2019-02-17T08:07:14.909Z,100.00
2019-02-17T08:09:43.329Z,100.00
2019-02-17T08:12:11.646Z,100.00
2019-02-17T08:14:39.965Z,100.00
2019-02-17T08:17:08.581Z,100.00
2019-02-17T08:19:37.006Z,100.00
2019-02-17T08:22:05.314Z,100.00
2019-02-17T08:24:33.640Z,100.00
2019-02-17T08:27:01.954Z,100.00
2019-02-17T08:29:30.271Z,100.00
2019-02-17T08:31:58.587Z,100.00
2019-02-17T08:34:26.887Z,100.00
2019-02-17T08:36:55.225Z,100.00
2019-02-17T08:39:23.535Z,100.00
2019-02-17T08:41:51.833Z,100.00
2019-02-17T08:44:20.458Z,100.00
2019-02-17T08:46:49.050Z,100.00
2019-02-17T08:49:17.399Z,100.00
2019-02-17T08:51:45.802Z,100.00
2019-02-17T08:54:14.396Z,100.00
2019-02-17T08:56:42.718Z,100.00
2019-02-17T08:59:11.025Z,100.00
2019-02-17T09:01:40.515Z,100.00
2019-02-17T09:04:08.837Z,100.00
2019-02-17T09:06:37.201Z,100.00
2019-02-17T09:09:06.274Z,100.00
2019-02-17T09:11:34.697Z,100.00
2019-02-17T09:14:03.219Z,100.00
2019-02-17T09:16:31.523Z,100.00
2019-02-17T09:18:59.866Z,100.00
2019-02-17T09:21:28.345Z,100.00
2019-02-17T09:23:56.771Z,100.00
2019-02-17T09:26:25.087Z,100.00
2019-02-17T09:28:53.390Z,100.00
2019-02-17T09:31:21.712Z,100.00
2019-02-17T09:33:50.021Z,100.00
2019-02-17T09:36:18.340Z,100.00
2019-02-17T09:38:46.648Z,100.00
2019-02-17T09:41:14.957Z,100.00
2019-02-17T09:43:45.497Z,100.00
2019-02-17T09:46:13.306Z,100.00
2019-02-17T09:48:41.812Z,100.00
2019-02-17T09:51:10.336Z,100.00
2019-02-17T09:53:38.647Z,100.00
2019-02-17T09:56:08.063Z,100.00
2019-02-17T09:58:36.420Z,100.00
2019-02-17T10:01:04.786Z,100.00
2019-02-17T10:03:33.106Z,100.00
2019-02-17T10:06:01.436Z,100.00
2019-02-17T10:08:29.794Z,100.00
2019-02-17T10:10:58.106Z,100.00
2019-02-17T10:13:26.551Z,100.00
2019-02-17T10:15:54.849Z,99.93
2019-02-17T10:18:23.184Z,100.00
2019-02-17T10:20:51.490Z,98.29
2019-02-17T10:23:19.792Z,100.00
2019-02-17T10:25:48.136Z,100.00
2019-02-17T10:28:16.443Z,100.00
2019-02-17T10:30:44.777Z,97.61
2019-02-17T10:33:13.078Z,97.41
2019-02-17T10:35:41.371Z,97.03
2019-02-17T10:38:09.696Z,93.72
2019-02-17T10:40:37.987Z,95.30
2019-02-17T10:43:06.324Z,95.91
2019-02-17T10:45:34.806Z,94.98
2019-02-17T10:48:03.145Z,94.82
2019-02-17T10:50:31.444Z,94.79
2019-02-17T10:52:59.751Z,96.55
2019-02-17T10:55:28.137Z,96.78
2019-02-17T10:57:56.439Z,91.86
2019-02-17T11:00:25.143Z,90.87
2019-02-17T11:02:53.834Z,90.01
2019-02-17T11:05:22.125Z,86.67
2019-02-17T11:07:50.507Z,88.86
2019-02-17T11:10:18.805Z,84.54
2019-02-17T11:12:47.136Z,84.38
2019-02-17T11:15:19.119Z,87.08
2019-02-17T11:17:47.514Z,81.46
2019-02-17T11:20:16.655Z,78.53
2019-02-17T11:22:44.968Z,77.27
2019-02-17T11:25:13.366Z,79.10
2019-02-17T11:27:42.242Z,76.47
2019-02-17T11:30:16.158Z,77.74
2019-02-17T11:32:44.657Z,76.08
2019-02-17T11:35:13.032Z,68.74
2019-02-17T11:37:41.432Z,66.49
2019-02-17T11:40:11.585Z,63.49
2019-02-17T11:42:39.955Z,58.05
2019-02-17T11:45:11.724Z,56.72
2019-02-17T11:47:40.019Z,52.42
2019-02-17T11:50:09.397Z,49.87
2019-02-17T11:52:37.767Z,50.79
2019-02-17T11:55:09.193Z,49.16
2019-02-17T11:57:37.527Z,50.34
2019-02-17T12:00:22.908Z,47.20
2019-02-17T12:02:51.220Z,45.37
2019-02-17T12:05:20.437Z,45.04
2019-02-17T12:07:48.771Z,43.17
2019-02-17T12:10:17.410Z,41.85
2019-02-17T12:12:45.701Z,40.89
2019-02-17T12:15:14.485Z,41.24
2019-02-17T12:17:42.804Z,42.71
2019-02-17T12:20:41.220Z,39.85
2019-02-17T12:23:11.151Z,40.70
2019-02-17T12:25:41.190Z,39.03
2019-02-17T12:28:11.135Z,39.41
2019-02-17T12:30:40.715Z,38.37
2019-02-17T12:33:18.258Z,38.37
2019-02-17T12:35:39.050Z,40.85
2019-02-17T12:38:07.367Z,38.43
2019-02-17T12:40:35.664Z,38.21
2019-02-17T12:43:03.998Z,35.91
2019-02-17T12:45:32.288Z,35.70
2019-02-17T12:48:00.578Z,35.71
2019-02-17T12:50:29.201Z,36.16
2019-02-17T12:52:57.498Z,35.45
2019-02-17T12:55:25.826Z,35.37
2019-02-17T12:57:54.127Z,35.18
2019-02-17T13:00:22.431Z,33.57
2019-02-17T13:02:50.753Z,35.06
2019-02-17T13:05:19.039Z,34.01
2019-02-17T13:07:47.367Z,33.95
2019-02-17T13:10:15.747Z,34.48
2019-02-17T13:12:44.036Z,34.28
2019-02-17T13:15:13.605Z,37.15
2019-02-17T13:17:41.898Z,33.67
2019-02-17T13:20:12.646Z,35.18
2019-02-17T13:22:40.939Z,33.86
2019-02-17T13:25:11.791Z,36.00
2019-02-17T13:27:40.455Z,32.32
2019-02-17T13:30:14.667Z,31.82
2019-02-17T13:32:43.063Z,31.84
2019-02-17T13:35:11.450Z,33.50
2019-02-17T13:37:39.749Z,33.75
2019-02-17T13:40:10.708Z,31.84
2019-02-17T13:42:39.006Z,35.41
2019-02-17T13:45:15.469Z,35.90
2019-02-17T13:47:43.851Z,32.19
2019-02-17T13:50:17.078Z,31.36
2019-02-17T13:52:45.398Z,35.84
2019-02-17T13:55:13.976Z,33.60
2019-02-17T13:57:42.294Z,32.37
2019-02-17T14:00:20.835Z,32.72
2019-02-17T14:02:49.205Z,33.09
2019-02-17T14:05:17.929Z,32.92
2019-02-17T14:07:46.306Z,34.40
2019-02-17T14:10:15.095Z,33.28
2019-02-17T14:12:43.394Z,32.13
2019-02-17T14:15:16.854Z,32.89
2019-02-17T14:17:45.216Z,33.21
2019-02-17T14:20:13.539Z,32.42
2019-02-17T14:22:41.937Z,34.63
2019-02-17T14:25:11.451Z,34.01
2019-02-17T14:27:39.826Z,32.75
2019-02-17T14:30:11.319Z,34.15
2019-02-17T14:32:39.632Z,34.41
2019-02-17T14:35:08.555Z,34.80
2019-02-17T14:37:36.962Z,32.53
2019-02-17T14:40:07.810Z,31.93
2019-02-17T14:42:36.247Z,33.40
2019-02-17T14:45:07.190Z,32.86
2019-02-17T14:47:35.487Z,31.48
2019-02-17T14:50:05.253Z,35.03
2019-02-17T14:52:33.557Z,33.63
2019-02-17T14:55:01.935Z,31.83
2019-02-17T14:57:30.253Z,31.83
2019-02-17T14:59:58.559Z,32.78
2019-02-17T15:02:26.955Z,35.30
2019-02-17T15:04:55.191Z,35.03
2019-02-17T15:07:23.501Z,36.95
2019-02-17T15:09:51.817Z,37.97
2019-02-17T15:12:20.113Z,38.55
2019-02-17T15:14:48.501Z,36.02
2019-02-17T15:17:16.805Z,38.85
2019-02-17T15:19:45.119Z,37.45
2019-02-17T15:22:13.443Z,39.05
2019-02-17T15:24:41.753Z,41.22
2019-02-17T15:27:10.100Z,42.17
2019-02-17T15:29:38.474Z,40.07
2019-02-17T15:32:06.776Z,40.07
2019-02-17T15:34:35.509Z,41.73
2019-02-17T15:37:03.853Z,44.25
2019-02-17T15:39:32.250Z,42.75
2019-02-17T15:42:00.899Z,43.46
2019-02-17T15:44:29.191Z,44.55
2019-02-17T15:46:57.519Z,44.11
2019-02-17T15:49:25.819Z,43.93
2019-02-17T15:51:54.146Z,45.08
2019-02-17T15:54:22.802Z,46.56
2019-02-17T15:56:51.210Z,47.74
2019-02-17T15:59:19.577Z,48.55
2019-02-17T16:01:48.115Z,48.56
2019-02-17T16:04:16.591Z,48.53
2019-02-17T16:06:44.890Z,48.93
2019-02-17T16:09:13.194Z,49.63
2019-02-17T16:11:41.523Z,50.91
2019-02-17T16:14:09.830Z,52.71
2019-02-17T16:16:38.163Z,54.58
2019-02-17T16:19:06.475Z,56.54
2019-02-17T16:21:34.780Z,57.65
2019-02-17T16:24:03.100Z,58.29
2019-02-17T16:26:31.677Z,58.89
2019-02-17T16:29:00.349Z,60.69
2019-02-17T16:31:28.652Z,61.55
2019-02-17T16:33:56.979Z,62.95
2019-02-17T16:36:25.301Z,63.54
2019-02-17T16:38:53.602Z,65.99
2019-02-17T16:41:22.262Z,66.85
2019-02-17T16:43:50.639Z,67.40
2019-02-17T16:46:19.930Z,70.48
2019-02-17T16:48:48.247Z,72.18
2019-02-17T16:51:16.906Z,76.91
2019-02-17T16:53:45.246Z,77.92
2019-02-17T16:56:13.553Z,80.03
2019-02-17T16:58:41.858Z,80.03
2019-02-17T17:01:10.249Z,81.53
2019-02-17T17:03:38.916Z,83.05
2019-02-17T17:06:07.327Z,83.22
2019-02-17T17:08:35.808Z,85.02
2019-02-17T17:11:04.164Z,86.31
2019-02-17T17:13:32.477Z,85.24
2019-02-17T17:16:00.840Z,85.97
2019-02-17T17:18:29.172Z,88.43
2019-02-17T17:20:57.483Z,89.51
2019-02-17T17:23:25.776Z,93.35
2019-02-17T17:25:54.475Z,96.77
2019-02-17T17:28:22.784Z,100.00
2019-02-17T17:30:52.039Z,100.00
2019-02-17T17:33:20.343Z,100.00
2019-02-17T17:35:49.019Z,100.00
2019-02-17T17:38:17.337Z,100.00
2019-02-17T17:40:45.646Z,100.00
2019-02-17T17:43:14.056Z,100.00
2019-02-17T17:45:42.361Z,100.00
2019-02-17T17:48:10.661Z,100.00
2019-02-17T17:50:38.984Z,100.00
2019-02-17T17:53:07.636Z,100.00
2019-02-17T17:55:36.041Z,100.00
2019-02-17T17:58:04.481Z,100.00
2019-02-17T18:00:34.437Z,100.00
2019-02-17T18:03:02.824Z,100.00
2019-02-17T18:05:31.126Z,100.00
2019-02-17T18:07:59.463Z,100.00
2019-02-17T18:10:28.094Z,100.00
2019-02-17T18:12:56.399Z,100.00
2019-02-17T18:15:24.726Z,100.00
2019-02-17T18:17:54.990Z,100.00
2019-02-17T18:20:23.808Z,100.00
2019-02-17T18:22:52.111Z,100.00
2019-02-17T18:25:20.419Z,100.00
2019-02-17T18:27:48.894Z,100.00
2019-02-17T18:30:18.645Z,100.00
2019-02-17T18:32:47.115Z,100.00
2019-02-17T18:35:19.858Z,100.00
2019-02-17T18:37:45.680Z,100.00
2019-02-17T18:40:20.674Z,100.00
2019-02-17T18:42:49.051Z,100.00
2019-02-17T18:45:17.515Z,100.00
2019-02-17T18:47:45.816Z,100.00
2019-02-17T18:50:18.343Z,100.00
2019-02-17T18:52:46.720Z,100.00
2019-02-17T18:55:15.490Z,100.00
2019-02-17T18:57:49.907Z,100.00
2019-02-17T19:00:21.629Z,100.00
2019-02-17T19:02:49.961Z,100.00
2019-02-17T19:05:20.148Z,100.00
2019-02-17T19:07:48.582Z,100.00
2019-02-17T19:10:16.909Z,100.00
2019-02-17T19:12:45.210Z,100.00
2019-02-17T19:15:16.336Z,100.00
2019-02-17T19:17:44.643Z,100.00
2019-02-17T19:20:36.557Z,100.00
2019-02-17T19:23:04.887Z,100.00
2019-02-17T19:25:33.194Z,100.00
2019-02-17T19:28:03.669Z,100.00
2019-02-17T19:30:31.559Z,100.00
2019-02-17T19:32:59.878Z,100.00
2019-02-17T19:35:28.186Z,100.00
2019-02-17T19:37:56.564Z,100.00
2019-02-17T19:40:24.998Z,100.00
2019-02-17T19:42:53.306Z,100.00
2019-02-17T19:45:22.012Z,100.00
2019-02-17T19:47:50.328Z,100.00
2019-02-17T19:50:18.710Z,100.00
2019-02-17T19:52:47.095Z,100.00
2019-02-17T19:55:15.477Z,100.00
2019-02-17T19:57:43.887Z,100.00
2019-02-17T20:00:16.544Z,100.00
2019-02-17T20:03:02.778Z,100.00
2019-02-17T20:05:35.176Z,100.00
2019-02-17T20:08:02.825Z,100.00
2019-02-17T20:10:31.156Z,100.00
2019-02-17T20:12:59.536Z,100.00
2019-02-17T20:15:29.502Z,100.00
2019-02-17T20:17:58.200Z,100.00
2019-02-17T20:20:26.552Z,100.00
2019-02-17T20:22:54.862Z,100.00
2019-02-17T20:25:23.561Z,100.00
2019-02-17T20:27:51.886Z,100.00
2019-02-17T20:30:22.347Z,100.00
2019-02-17T20:32:50.684Z,100.00
2019-02-17T20:35:19.047Z,100.00
2019-02-17T20:37:47.402Z,100.00
2019-02-17T20:40:17.444Z,100.00
2019-02-17T20:42:45.836Z,100.00
2019-02-17T20:45:14.217Z,100.00
2019-02-17T20:47:42.593Z,100.00
2019-02-17T20:50:18.976Z,100.00
2019-02-17T20:52:47.281Z,100.00
2019-02-17T20:55:15.587Z,100.00
2019-02-17T20:57:44.291Z,100.00
2019-02-17T21:00:17.434Z,100.00
2019-02-17T21:02:45.833Z,100.00
2019-02-17T21:05:14.449Z,100.00
2019-02-17T21:07:42.756Z,100.00
2019-02-17T21:10:12.448Z,100.00
2019-02-17T21:12:40.730Z,100.00
2019-02-17T21:15:12.341Z,100.00
2019-02-17T21:17:40.655Z,100.00
2019-02-17T21:20:10.301Z,100.00
2019-02-17T21:22:38.626Z,100.00
2019-02-17T21:25:11.998Z,100.00
2019-02-17T21:27:40.430Z,100.00
2019-02-17T21:30:14.263Z,100.00
2019-02-17T21:32:42.561Z,100.00
2019-02-17T21:35:13.522Z,100.00
2019-02-17T21:37:41.899Z,100.00
2019-02-17T21:40:11.664Z,100.00
2019-02-17T21:42:39.969Z,100.00
2019-02-17T21:45:12.529Z,100.00
2019-02-17T21:47:41.291Z,100.00
2019-02-17T21:50:11.730Z,100.00
2019-02-17T21:52:41.964Z,100.00
2019-02-17T21:55:11.890Z,100.00
2019-02-17T21:57:40.596Z,100.00
2019-02-17T22:00:23.244Z,100.00
2019-02-17T22:02:51.737Z,100.00
2019-02-17T22:05:20.115Z,100.00
2019-02-17T22:07:48.413Z,100.00
2019-02-17T22:10:20.189Z,100.00
2019-02-17T22:12:51.097Z,100.00
2019-02-17T22:15:23.523Z,100.00
2019-02-17T22:17:51.827Z,100.00
2019-02-17T22:20:20.220Z,100.00
2019-02-17T22:22:48.519Z,100.00
2019-02-17T22:25:16.966Z,100.00
2019-02-17T22:27:45.355Z,100.00
2019-02-17T22:30:15.003Z,100.00
2019-02-17T22:32:43.396Z,100.00
2019-02-17T22:35:12.141Z,100.00
2019-02-17T22:37:40.524Z,100.00
2019-02-17T22:40:13.457Z,100.00
2019-02-17T22:42:41.763Z,100.00
2019-02-17T22:45:12.104Z,100.00
2019-02-17T22:47:40.475Z,100.00
2019-02-17T22:50:10.791Z,100.00
2019-02-17T22:52:39.115Z,100.00
2019-02-17T22:55:10.255Z,100.00
2019-02-17T22:57:38.644Z,100.00
2019-02-17T23:00:31.097Z,100.00
2019-02-17T23:02:59.424Z,100.00
2019-02-17T23:05:28.015Z,100.00
2019-02-17T23:07:56.352Z,100.00
2019-02-17T23:10:24.660Z,100.00
2019-02-17T23:12:52.972Z,100.00
2019-02-17T23:15:21.352Z,100.00
2019-02-17T23:17:50.025Z,100.00
2019-02-17T23:20:18.363Z,100.00
2019-02-17T23:22:46.670Z,100.00
2019-02-17T23:25:15.131Z,100.00
2019-02-17T23:27:43.460Z,100.00
2019-02-17T23:30:12.036Z,100.00
2019-02-17T23:32:40.336Z,100.00
2019-02-17T23:35:08.793Z,100.00
2019-02-17T23:37:37.097Z,100.00
2019-02-17T23:40:13.115Z,100.00
2019-02-17T23:42:41.491Z,100.00
2019-02-17T23:45:11.729Z,100.00
2019-02-17T23:47:40.130Z,100.00
2019-02-17T23:50:11.050Z,100.00
2019-02-17T23:52:40.052Z,100.00
2019-02-17T23:55:10.187Z,100.00
2019-02-17T23:57:39.189Z,100.00
